createdAt,value
2018-06-14T00:00:05.653Z,0.00
2018-06-14T00:01:05.716Z,0.00
2018-06-14T00:02:05.768Z,0.00
2018-06-14T00:03:05.828Z,0.00
2018-06-14T00:04:05.884Z,0.00
2018-06-14T00:05:05.944Z,0.00
2018-06-14T00:06:06.000Z,0.00
2018-06-14T00:07:06.058Z,0.00
2018-06-14T00:08:06.116Z,0.00
2018-06-14T00:09:06.177Z,0.00
2018-06-14T00:10:06.232Z,0.00
2018-06-14T00:11:06.291Z,0.00
2018-06-14T00:12:06.350Z,0.00
2018-06-14T00:13:06.410Z,0.00
2018-06-14T00:14:06.464Z,0.00
2018-06-14T00:15:06.525Z,0.00
2018-06-14T00:16:06.580Z,0.00
2018-06-14T00:17:06.637Z,0.00
2018-06-14T00:18:06.700Z,0.00
2018-06-14T00:19:06.756Z,0.00
2018-06-14T00:20:07.012Z,0.00
2018-06-14T00:21:06.870Z,0.00
2018-06-14T00:22:06.926Z,0.00
2018-06-14T00:23:06.986Z,0.00
2018-06-14T00:24:07.043Z,0.00
2018-06-14T00:25:07.102Z,0.00
2018-06-14T00:26:07.159Z,0.00
2018-06-14T00:27:07.217Z,0.00
2018-06-14T00:28:07.274Z,0.00
2018-06-14T00:29:07.332Z,0.00
2018-06-14T00:30:07.390Z,0.00
2018-06-14T00:31:07.450Z,0.00
2018-06-14T00:32:07.506Z,0.00
2018-06-14T00:33:07.563Z,0.00
2018-06-14T00:34:07.621Z,0.00
2018-06-14T00:35:07.683Z,0.00
2018-06-14T00:36:07.736Z,0.00
2018-06-14T00:37:07.794Z,0.00
2018-06-14T00:38:07.851Z,0.00
2018-06-14T00:39:07.910Z,0.00
2018-06-14T00:40:08.011Z,0.00
2018-06-14T00:41:08.025Z,0.00
2018-06-14T00:42:08.083Z,0.00
2018-06-14T00:43:08.143Z,0.00
2018-06-14T00:44:08.199Z,0.00
2018-06-14T00:45:08.257Z,0.00
2018-06-14T00:46:08.314Z,0.00
2018-06-14T00:47:08.372Z,0.00
2018-06-14T00:48:08.429Z,0.00
2018-06-14T00:49:08.486Z,0.00
2018-06-14T00:50:08.545Z,0.00
2018-06-14T00:51:08.635Z,0.00
2018-06-14T00:52:08.659Z,0.00
2018-06-14T00:53:08.717Z,0.00
2018-06-14T00:54:08.800Z,0.00
2018-06-14T00:55:08.833Z,0.00
2018-06-14T00:56:08.890Z,0.00
2018-06-14T00:57:08.947Z,0.00
2018-06-14T00:58:09.006Z,0.00
2018-06-14T00:59:09.075Z,0.00
2018-06-14T01:00:09.121Z,0.00
2018-06-14T01:01:09.178Z,0.00
2018-06-14T01:02:09.236Z,0.00
2018-06-14T01:03:09.292Z,0.00
2018-06-14T01:04:09.350Z,0.00
2018-06-14T01:05:09.409Z,0.00
2018-06-14T01:06:09.467Z,0.00
2018-06-14T01:07:09.525Z,0.00
2018-06-14T01:08:09.582Z,0.00
2018-06-14T01:09:09.891Z,0.00
2018-06-14T01:10:09.697Z,0.00
2018-06-14T01:11:09.756Z,0.00
2018-06-14T01:12:09.811Z,0.00
2018-06-14T01:13:09.868Z,0.00
2018-06-14T01:14:09.928Z,0.00
2018-06-14T01:15:09.987Z,0.00
2018-06-14T01:16:10.046Z,0.00
2018-06-14T01:17:10.100Z,0.00
2018-06-14T01:18:10.157Z,0.00
2018-06-14T01:19:10.218Z,0.00
2018-06-14T01:20:10.272Z,0.00
2018-06-14T01:21:10.331Z,0.00
2018-06-14T01:22:10.388Z,0.00
2018-06-14T01:23:10.446Z,0.00
2018-06-14T01:24:10.504Z,0.00
2018-06-14T01:25:10.562Z,0.00
2018-06-14T01:26:10.769Z,0.00
2018-06-14T01:27:10.675Z,0.00
2018-06-14T01:28:10.733Z,0.00
2018-06-14T01:29:10.791Z,0.00
2018-06-14T01:30:10.849Z,0.00
2018-06-14T01:31:10.905Z,0.00
2018-06-14T01:32:10.962Z,0.00
2018-06-14T01:33:11.020Z,0.00
2018-06-14T01:34:11.078Z,0.00
2018-06-14T01:35:11.136Z,0.00
2018-06-14T01:36:11.193Z,0.00
2018-06-14T01:37:11.280Z,0.00
2018-06-14T01:38:11.308Z,0.00
2018-06-14T01:39:11.365Z,0.00
2018-06-14T01:40:11.422Z,0.00
2018-06-14T01:41:11.481Z,0.00
2018-06-14T01:42:11.537Z,0.00
2018-06-14T01:43:11.595Z,0.00
2018-06-14T01:44:11.652Z,0.00
2018-06-14T01:45:11.709Z,0.00
2018-06-14T01:46:11.767Z,0.00
2018-06-14T01:47:11.827Z,0.00
2018-06-14T01:48:11.881Z,0.00
2018-06-14T01:49:11.939Z,0.00
2018-06-14T01:50:11.995Z,0.00
2018-06-14T01:51:12.054Z,0.00
2018-06-14T01:52:12.111Z,0.00
2018-06-14T01:53:12.168Z,0.00
2018-06-14T01:54:12.226Z,0.00
2018-06-14T01:55:12.282Z,0.00
2018-06-14T01:56:12.340Z,0.00
2018-06-14T01:57:12.397Z,0.00
2018-06-14T01:58:12.454Z,0.00
2018-06-14T01:59:12.513Z,0.00
2018-06-14T02:00:12.568Z,0.00
2018-06-14T02:01:12.880Z,0.00
2018-06-14T02:02:12.685Z,0.00
2018-06-14T02:03:12.741Z,0.00
2018-06-14T02:04:12.797Z,0.00
2018-06-14T02:05:12.859Z,0.00
2018-06-14T02:06:12.912Z,0.00
2018-06-14T02:07:12.970Z,0.00
2018-06-14T02:08:13.026Z,0.00
2018-06-14T02:09:13.084Z,0.00
2018-06-14T02:10:13.141Z,0.00
2018-06-14T02:11:13.199Z,0.00
2018-06-14T02:12:13.268Z,0.00
2018-06-14T02:13:13.312Z,0.00
2018-06-14T02:14:13.370Z,0.00
2018-06-14T02:15:13.430Z,0.00
2018-06-14T02:16:13.485Z,0.00
2018-06-14T02:17:13.542Z,0.00
2018-06-14T02:18:13.599Z,0.00
2018-06-14T02:19:13.656Z,0.00
2018-06-14T02:20:13.713Z,0.00
2018-06-14T02:21:13.781Z,0.00
2018-06-14T02:22:13.827Z,0.00
2018-06-14T02:23:13.885Z,0.00
2018-06-14T02:24:13.941Z,0.00
2018-06-14T02:25:13.999Z,0.00
2018-06-14T02:26:14.059Z,0.00
2018-06-14T02:27:14.113Z,0.00
2018-06-14T02:28:14.170Z,0.00
2018-06-14T02:29:14.227Z,0.00
2018-06-14T02:30:14.286Z,0.00
2018-06-14T02:31:14.343Z,0.00
2018-06-14T02:32:14.399Z,0.00
2018-06-14T02:33:14.457Z,0.00
2018-06-14T02:34:14.515Z,0.00
2018-06-14T02:35:14.572Z,0.00
2018-06-14T02:36:14.628Z,0.00
2018-06-14T02:37:14.685Z,0.00
2018-06-14T02:38:14.743Z,0.00
2018-06-14T02:39:14.801Z,0.00
2018-06-14T02:40:14.856Z,0.00
2018-06-14T02:41:14.914Z,0.00
2018-06-14T02:42:14.970Z,0.00
2018-06-14T02:43:15.029Z,0.00
2018-06-14T02:44:15.089Z,0.00
2018-06-14T02:45:15.145Z,0.00
2018-06-14T02:46:15.200Z,0.00
2018-06-14T02:47:15.258Z,0.00
2018-06-14T02:48:15.314Z,0.00
2018-06-14T02:49:15.372Z,0.00
2018-06-14T02:50:15.429Z,0.00
2018-06-14T02:51:15.486Z,0.00
2018-06-14T02:52:15.542Z,0.00
2018-06-14T02:53:15.607Z,0.00
2018-06-14T02:54:15.661Z,0.00
2018-06-14T02:55:15.722Z,0.00
2018-06-14T02:56:16.025Z,0.00
2018-06-14T02:57:15.832Z,0.00
2018-06-14T02:58:15.887Z,0.00
2018-06-14T02:59:15.943Z,0.00
2018-06-14T03:00:16.008Z,0.00
2018-06-14T03:01:16.058Z,0.00
2018-06-14T03:02:16.114Z,0.00
2018-06-14T03:03:16.232Z,0.00
2018-06-14T03:04:16.228Z,0.00
2018-06-14T03:05:16.285Z,0.00
2018-06-14T03:06:16.342Z,0.00
2018-06-14T03:07:16.404Z,0.00
2018-06-14T03:08:16.455Z,0.00
2018-06-14T03:09:16.513Z,0.00
2018-06-14T03:10:16.572Z,5.63
2018-06-14T03:11:16.628Z,5.63
2018-06-14T03:12:16.685Z,5.63
2018-06-14T03:13:16.742Z,5.63
2018-06-14T03:14:17.049Z,5.63
2018-06-14T03:15:16.856Z,5.63
2018-06-14T03:16:16.915Z,5.63
2018-06-14T03:17:16.969Z,5.63
2018-06-14T03:18:17.026Z,5.63
2018-06-14T03:19:17.087Z,11.25
2018-06-14T03:20:17.140Z,11.25
2018-06-14T03:21:17.198Z,11.25
2018-06-14T03:22:17.255Z,11.25
2018-06-14T03:23:17.316Z,11.25
2018-06-14T03:24:17.368Z,11.25
2018-06-14T03:25:17.425Z,11.25
2018-06-14T03:26:17.483Z,16.88
2018-06-14T03:27:17.540Z,16.88
2018-06-14T03:28:17.595Z,16.88
2018-06-14T03:29:17.652Z,16.88
2018-06-14T03:30:17.710Z,22.50
2018-06-14T03:31:17.767Z,22.50
2018-06-14T03:32:17.823Z,22.50
2018-06-14T03:33:17.880Z,22.50
2018-06-14T03:34:17.939Z,28.13
2018-06-14T03:35:17.995Z,28.13
2018-06-14T03:36:18.054Z,28.13
2018-06-14T03:37:18.108Z,28.13
2018-06-14T03:38:18.165Z,33.75
2018-06-14T03:39:18.222Z,33.75
2018-06-14T03:40:18.278Z,33.75
2018-06-14T03:41:18.335Z,33.75
2018-06-14T03:42:18.393Z,39.38
2018-06-14T03:43:18.450Z,39.38
2018-06-14T03:44:18.509Z,39.38
2018-06-14T03:45:18.564Z,45.00
2018-06-14T03:46:18.621Z,45.00
2018-06-14T03:47:18.678Z,45.00
2018-06-14T03:48:18.734Z,45.00
2018-06-14T03:49:18.791Z,50.63
2018-06-14T03:50:18.849Z,50.63
2018-06-14T03:51:18.907Z,50.63
2018-06-14T03:52:18.965Z,56.25
2018-06-14T03:53:19.021Z,56.25
2018-06-14T03:54:19.076Z,61.88
2018-06-14T03:55:19.133Z,61.88
2018-06-14T03:56:19.195Z,67.50
2018-06-14T03:57:19.248Z,67.50
2018-06-14T03:58:19.307Z,73.13
2018-06-14T03:59:19.362Z,73.13
2018-06-14T04:00:19.418Z,78.75
2018-06-14T04:01:19.888Z,78.75
2018-06-14T04:02:19.531Z,84.38
2018-06-14T04:03:19.588Z,84.38
2018-06-14T04:04:19.896Z,84.38
2018-06-14T04:05:19.702Z,90.00
2018-06-14T04:06:19.760Z,90.00
2018-06-14T04:07:19.819Z,95.63
2018-06-14T04:08:19.873Z,95.63
2018-06-14T04:09:19.929Z,101.25
2018-06-14T04:10:20.009Z,101.25
2018-06-14T04:11:20.045Z,101.25
2018-06-14T04:12:20.104Z,106.88
2018-06-14T04:13:20.159Z,106.88
2018-06-14T04:14:20.217Z,112.50
2018-06-14T04:15:20.273Z,112.50
2018-06-14T04:16:20.329Z,118.13
2018-06-14T04:17:20.386Z,118.13
2018-06-14T04:18:20.444Z,123.75
2018-06-14T04:19:20.501Z,129.38
2018-06-14T04:20:20.563Z,129.38
2018-06-14T04:21:20.615Z,135.00
2018-06-14T04:22:20.671Z,135.00
2018-06-14T04:23:21.084Z,140.63
2018-06-14T04:24:20.786Z,146.25
2018-06-14T04:25:20.843Z,151.88
2018-06-14T04:26:20.899Z,157.50
2018-06-14T04:27:20.977Z,163.13
2018-06-14T04:28:21.024Z,168.75
2018-06-14T04:29:21.082Z,168.75
2018-06-14T04:30:21.152Z,174.38
2018-06-14T04:31:21.186Z,185.63
2018-06-14T04:32:21.242Z,180.00
2018-06-14T04:33:21.300Z,180.00
2018-06-14T04:34:21.357Z,174.38
2018-06-14T04:35:21.415Z,174.38
2018-06-14T04:36:21.476Z,168.75
2018-06-14T04:37:21.528Z,163.13
2018-06-14T04:38:21.836Z,163.13
2018-06-14T04:39:21.676Z,168.75
2018-06-14T04:40:21.700Z,174.38
2018-06-14T04:41:21.757Z,185.63
2018-06-14T04:42:21.816Z,196.88
2018-06-14T04:43:21.872Z,196.88
2018-06-14T04:44:21.928Z,202.50
2018-06-14T04:45:21.986Z,202.50
2018-06-14T04:46:22.045Z,202.50
2018-06-14T04:47:22.102Z,202.50
2018-06-14T04:48:22.158Z,202.50
2018-06-14T04:49:22.216Z,202.50
2018-06-14T04:50:22.273Z,202.50
2018-06-14T04:51:22.331Z,202.50
2018-06-14T04:52:23.277Z,202.50
2018-06-14T04:53:23.151Z,196.88
2018-06-14T04:54:22.503Z,202.50
2018-06-14T04:55:22.561Z,202.50
2018-06-14T04:56:22.618Z,202.50
2018-06-14T04:57:22.675Z,208.13
2018-06-14T04:58:22.734Z,213.75
2018-06-14T04:59:22.790Z,213.75
2018-06-14T05:00:22.846Z,219.38
2018-06-14T05:01:22.908Z,219.38
2018-06-14T05:02:22.973Z,225.00
2018-06-14T05:03:23.021Z,225.00
2018-06-14T05:04:23.078Z,225.00
2018-06-14T05:05:23.135Z,230.63
2018-06-14T05:06:23.194Z,230.63
2018-06-14T05:07:23.256Z,230.63
2018-06-14T05:08:23.319Z,230.63
2018-06-14T05:09:23.855Z,225.00
2018-06-14T05:10:23.424Z,225.00
2018-06-14T05:11:23.485Z,225.00
2018-06-14T05:12:23.539Z,219.38
2018-06-14T05:13:23.604Z,219.38
2018-06-14T05:14:23.655Z,225.00
2018-06-14T05:15:23.714Z,230.63
2018-06-14T05:16:23.770Z,236.25
2018-06-14T05:17:23.849Z,241.88
2018-06-14T05:18:23.886Z,247.50
2018-06-14T05:19:23.945Z,247.50
2018-06-14T05:20:24.004Z,247.50
2018-06-14T05:21:24.073Z,253.13
2018-06-14T05:22:24.117Z,253.13
2018-06-14T05:23:24.177Z,247.50
2018-06-14T05:24:24.234Z,253.13
2018-06-14T05:25:24.292Z,253.13
2018-06-14T05:26:24.351Z,258.75
2018-06-14T05:27:24.409Z,264.38
2018-06-14T05:28:24.465Z,264.38
2018-06-14T05:29:24.571Z,264.38
2018-06-14T05:30:24.583Z,264.38
2018-06-14T05:31:24.642Z,264.38
2018-06-14T05:32:24.699Z,264.38
2018-06-14T05:33:24.759Z,258.75
2018-06-14T05:34:24.815Z,258.75
2018-06-14T05:35:24.875Z,264.38
2018-06-14T05:36:24.931Z,264.38
2018-06-14T05:37:24.992Z,270.00
2018-06-14T05:38:25.049Z,270.00
2018-06-14T05:39:25.107Z,270.00
2018-06-14T05:40:25.165Z,270.00
2018-06-14T05:41:25.223Z,270.00
2018-06-14T05:42:25.339Z,270.00
2018-06-14T05:43:25.340Z,281.25
2018-06-14T05:44:25.398Z,281.25
2018-06-14T05:45:25.457Z,292.50
2018-06-14T05:46:25.516Z,309.38
2018-06-14T05:47:25.574Z,309.38
2018-06-14T05:48:25.633Z,320.63
2018-06-14T05:49:25.691Z,331.88
2018-06-14T05:50:25.751Z,337.50
2018-06-14T05:51:25.809Z,337.50
2018-06-14T05:52:25.867Z,337.50
2018-06-14T05:53:25.926Z,337.50
2018-06-14T05:54:25.986Z,337.50
2018-06-14T05:55:26.044Z,337.50
2018-06-14T05:56:26.102Z,326.25
2018-06-14T05:57:26.163Z,326.25
2018-06-14T05:58:26.222Z,320.63
2018-06-14T05:59:26.306Z,320.63
2018-06-14T06:00:26.338Z,315.00
2018-06-14T06:01:26.398Z,303.75
2018-06-14T06:02:26.607Z,298.13
2018-06-14T06:03:26.517Z,292.50
2018-06-14T06:04:26.574Z,286.88
2018-06-14T06:05:27.002Z,298.13
2018-06-14T06:06:26.693Z,309.38
2018-06-14T06:07:26.752Z,315.00
2018-06-14T06:08:26.810Z,331.88
2018-06-14T06:09:26.870Z,343.13
2018-06-14T06:10:26.928Z,348.75
2018-06-14T06:11:26.989Z,354.38
2018-06-14T06:12:27.728Z,337.50
2018-06-14T06:13:27.203Z,343.13
2018-06-14T06:14:27.203Z,343.13
2018-06-14T06:15:27.225Z,337.50
2018-06-14T06:16:27.285Z,337.50
2018-06-14T06:17:27.343Z,337.50
2018-06-14T06:18:27.404Z,331.88
2018-06-14T06:19:27.466Z,331.88
2018-06-14T06:20:27.541Z,337.50
2018-06-14T06:21:27.580Z,337.50
2018-06-14T06:22:27.643Z,337.50
2018-06-14T06:23:27.794Z,337.50
2018-06-14T06:24:27.843Z,315.00
2018-06-14T06:25:27.859Z,303.75
2018-06-14T06:26:27.990Z,303.75
2018-06-14T06:27:27.969Z,309.38
2018-06-14T06:28:28.037Z,303.75
2018-06-14T06:29:28.087Z,292.50
2018-06-14T06:30:28.206Z,281.25
2018-06-14T06:31:28.187Z,275.63
2018-06-14T06:32:28.269Z,275.63
2018-06-14T06:33:28.382Z,270.00
2018-06-14T06:34:28.383Z,275.63
2018-06-14T06:35:28.454Z,286.88
2018-06-14T06:36:28.503Z,298.13
2018-06-14T06:37:28.560Z,309.38
2018-06-14T06:38:28.648Z,315.00
2018-06-14T06:39:28.680Z,315.00
2018-06-14T06:40:28.738Z,315.00
2018-06-14T06:41:28.847Z,315.00
2018-06-14T06:42:28.826Z,309.38
2018-06-14T06:43:28.886Z,298.13
2018-06-14T06:44:28.956Z,292.50
2018-06-14T06:45:29.010Z,292.50
2018-06-14T06:46:29.063Z,303.75
2018-06-14T06:47:29.123Z,303.75
2018-06-14T06:48:29.182Z,303.75
2018-06-14T06:49:29.242Z,309.38
2018-06-14T06:50:29.302Z,309.38
2018-06-14T06:51:29.361Z,309.38
2018-06-14T06:52:29.420Z,315.00
2018-06-14T06:53:29.481Z,315.00
2018-06-14T06:54:29.540Z,315.00
2018-06-14T06:55:29.600Z,315.00
2018-06-14T06:56:29.685Z,303.75
2018-06-14T06:57:29.719Z,292.50
2018-06-14T06:58:29.778Z,309.38
2018-06-14T06:59:29.841Z,320.63
2018-06-14T07:00:29.897Z,309.38
2018-06-14T07:01:29.957Z,303.75
2018-06-14T07:02:30.018Z,303.75
2018-06-14T07:03:30.076Z,309.38
2018-06-14T07:04:30.137Z,303.75
2018-06-14T07:05:30.197Z,303.75
2018-06-14T07:06:30.311Z,303.75
2018-06-14T07:07:30.316Z,309.38
2018-06-14T07:08:30.378Z,309.38
2018-06-14T07:09:30.435Z,309.38
2018-06-14T07:10:30.532Z,309.38
2018-06-14T07:11:30.584Z,303.75
2018-06-14T07:12:30.613Z,303.75
2018-06-14T07:13:30.674Z,298.13
2018-06-14T07:14:30.734Z,286.88
2018-06-14T07:15:30.795Z,292.50
2018-06-14T07:16:30.855Z,303.75
2018-06-14T07:17:30.914Z,303.75
2018-06-14T07:18:30.973Z,309.38
2018-06-14T07:19:32.226Z,315.00
2018-06-14T07:20:31.403Z,320.63
2018-06-14T07:21:31.208Z,320.63
2018-06-14T07:22:31.212Z,331.88
2018-06-14T07:23:31.275Z,331.88
2018-06-14T07:24:31.333Z,337.50
2018-06-14T07:25:32.081Z,343.13
2018-06-14T07:26:31.454Z,331.88
2018-06-14T07:27:31.515Z,337.50
2018-06-14T07:28:31.576Z,337.50
2018-06-14T07:29:31.682Z,337.50
2018-06-14T07:30:31.694Z,343.13
2018-06-14T07:31:31.754Z,326.25
2018-06-14T07:32:31.814Z,320.63
2018-06-14T07:33:31.875Z,331.88
2018-06-14T07:34:31.936Z,326.25
2018-06-14T07:35:31.996Z,320.63
2018-06-14T07:36:32.055Z,320.63
2018-06-14T07:37:32.116Z,315.00
2018-06-14T07:38:32.177Z,320.63
2018-06-14T07:39:32.238Z,343.13
2018-06-14T07:40:32.297Z,354.38
2018-06-14T07:41:32.359Z,354.38
2018-06-14T07:42:32.418Z,360.00
2018-06-14T07:43:32.480Z,354.38
2018-06-14T07:44:32.540Z,343.13
2018-06-14T07:45:32.600Z,348.75
2018-06-14T07:46:32.661Z,360.00
2018-06-14T07:47:32.724Z,360.00
2018-06-14T07:48:32.781Z,365.63
2018-06-14T07:49:32.845Z,365.63
2018-06-14T07:50:32.904Z,371.25
2018-06-14T07:51:32.966Z,376.88
2018-06-14T07:52:33.024Z,382.50
2018-06-14T07:53:33.086Z,388.13
2018-06-14T07:54:33.165Z,393.75
2018-06-14T07:55:33.210Z,399.38
2018-06-14T07:56:33.269Z,399.38
2018-06-14T07:57:33.331Z,399.38
2018-06-14T07:58:33.391Z,399.38
2018-06-14T07:59:33.452Z,399.38
2018-06-14T08:00:33.518Z,399.38
2018-06-14T08:01:33.574Z,399.38
2018-06-14T08:02:33.636Z,405.00
2018-06-14T08:03:33.697Z,410.63
2018-06-14T08:04:33.757Z,410.63
2018-06-14T08:05:33.820Z,421.88
2018-06-14T08:06:33.915Z,421.88
2018-06-14T08:07:33.944Z,438.75
2018-06-14T08:08:34.003Z,450.00
2018-06-14T08:09:34.066Z,466.88
2018-06-14T08:10:34.128Z,483.75
2018-06-14T08:11:34.188Z,506.25
2018-06-14T08:12:34.702Z,540.00
2018-06-14T08:13:34.694Z,579.38
2018-06-14T08:14:34.380Z,635.63
2018-06-14T08:16:07.850Z,703.13
2018-06-14T08:16:34.811Z,748.13
2018-06-14T08:17:34.560Z,804.38
2018-06-14T08:18:34.622Z,810.00
2018-06-14T08:19:34.685Z,849.38
2018-06-14T08:20:34.746Z,832.50
2018-06-14T08:21:34.812Z,787.50
2018-06-14T08:22:34.874Z,720.00
2018-06-14T08:23:34.934Z,663.75
2018-06-14T08:24:34.996Z,641.25
2018-06-14T08:25:35.059Z,596.25
2018-06-14T08:26:35.121Z,607.50
2018-06-14T08:27:35.186Z,613.13
2018-06-14T08:28:35.249Z,601.88
2018-06-14T08:29:35.344Z,601.88
2018-06-14T08:30:35.413Z,646.88
2018-06-14T08:31:35.439Z,703.13
2018-06-14T08:32:35.499Z,759.38
2018-06-14T08:33:35.571Z,770.63
2018-06-14T08:34:35.625Z,815.63
2018-06-14T08:35:35.690Z,855.00
2018-06-14T08:36:35.752Z,855.00
2018-06-14T08:37:35.816Z,793.13
2018-06-14T08:38:35.908Z,793.13
2018-06-14T08:39:35.972Z,753.75
2018-06-14T08:40:36.320Z,759.38
2018-06-14T08:41:36.178Z,838.13
2018-06-14T08:42:36.136Z,860.63
2018-06-14T08:43:36.510Z,832.50
2018-06-14T08:44:36.260Z,770.63
2018-06-14T08:45:36.378Z,708.75
2018-06-14T08:46:36.384Z,697.50
2018-06-14T08:47:36.451Z,731.25
2018-06-14T08:48:36.879Z,725.63
2018-06-14T08:49:36.577Z,748.13
2018-06-14T08:50:36.638Z,714.38
2018-06-14T08:51:36.703Z,753.75
2018-06-14T08:52:36.770Z,798.75
2018-06-14T08:53:36.831Z,821.25
2018-06-14T08:54:36.893Z,815.63
2018-06-14T08:55:36.956Z,810.00
2018-06-14T08:56:37.434Z,776.25
2018-06-14T08:57:37.083Z,781.88
2018-06-14T08:58:37.146Z,821.25
2018-06-14T08:59:37.211Z,798.75
2018-06-14T09:00:37.278Z,731.25
2018-06-14T09:01:37.339Z,624.38
2018-06-14T09:02:37.403Z,562.50
2018-06-14T09:03:37.466Z,545.63
2018-06-14T09:04:37.529Z,568.13
2018-06-14T09:05:37.938Z,596.25
2018-06-14T09:06:37.658Z,624.38
2018-06-14T09:07:37.721Z,652.50
2018-06-14T09:08:37.786Z,658.13
2018-06-14T09:09:37.848Z,686.25
2018-06-14T09:10:37.911Z,714.38
2018-06-14T09:11:37.975Z,697.50
2018-06-14T09:12:38.038Z,680.63
2018-06-14T09:13:38.107Z,669.38
2018-06-14T09:14:38.170Z,675.00
2018-06-14T09:15:38.231Z,680.63
2018-06-14T09:16:38.865Z,691.88
2018-06-14T09:17:38.357Z,663.75
2018-06-14T09:18:38.422Z,708.75
2018-06-14T09:19:38.487Z,759.38
2018-06-14T09:20:38.549Z,798.75
2018-06-14T09:21:38.618Z,855.00
2018-06-14T09:22:38.677Z,905.63
2018-06-14T09:23:38.741Z,967.50
2018-06-14T09:24:38.808Z,990.00
2018-06-14T09:25:38.879Z,967.50
2018-06-14T09:26:38.935Z,990.00
2018-06-14T09:27:39.412Z,967.50
2018-06-14T09:28:39.061Z,967.50
2018-06-14T09:29:39.138Z,945.00
2018-06-14T09:30:39.192Z,973.13
2018-06-14T09:31:39.257Z,1046.25
2018-06-14T09:32:39.319Z,1029.38
2018-06-14T09:33:39.388Z,1051.88
2018-06-14T09:34:39.449Z,1102.50
2018-06-14T09:35:39.513Z,1147.50
2018-06-14T09:36:39.577Z,1102.50
2018-06-14T09:37:39.644Z,1051.88
2018-06-14T09:38:39.710Z,995.63
2018-06-14T09:39:39.776Z,956.25
2018-06-14T09:40:39.837Z,990.00
2018-06-14T09:41:39.902Z,1040.63
2018-06-14T09:42:39.967Z,1035.00
2018-06-14T09:43:40.035Z,1046.25
2018-06-14T09:44:40.098Z,1046.25
2018-06-14T09:45:40.163Z,1108.13
2018-06-14T09:46:40.229Z,1215.00
2018-06-14T09:47:40.300Z,1271.25
2018-06-14T09:48:40.360Z,1316.25
2018-06-14T09:49:40.425Z,1327.50
2018-06-14T09:50:40.494Z,1220.63
2018-06-14T09:51:41.166Z,1080.00
2018-06-14T09:52:40.623Z,1018.13
2018-06-14T09:53:40.689Z,1012.50
2018-06-14T09:54:41.300Z,1035.00
2018-06-14T09:55:41.401Z,1141.88
2018-06-14T09:56:40.893Z,1299.38
2018-06-14T09:57:41.821Z,1372.50
2018-06-14T09:58:41.024Z,1383.75
2018-06-14T09:59:41.084Z,1333.13
2018-06-14T10:00:41.153Z,1366.88
2018-06-14T10:01:41.217Z,1338.75
2018-06-14T10:02:41.284Z,2188.13
2018-06-14T10:03:41.350Z,2025.00
2018-06-14T10:04:41.417Z,2722.50
2018-06-14T10:05:41.485Z,2660.63
2018-06-14T10:06:41.550Z,2688.75
2018-06-14T10:07:41.619Z,2700.00
2018-06-14T10:08:41.687Z,2885.63
2018-06-14T10:09:41.754Z,2733.75
2018-06-14T10:10:41.822Z,2615.63
2018-06-14T10:11:41.892Z,2272.50
2018-06-14T10:12:41.959Z,1383.75
2018-06-14T10:13:42.029Z,1299.38
2018-06-14T10:14:42.098Z,1192.50
2018-06-14T10:15:42.167Z,1175.63
2018-06-14T10:16:42.236Z,1170.00
2018-06-14T10:17:42.305Z,1198.13
2018-06-14T10:18:42.403Z,1248.75
2018-06-14T10:19:42.444Z,1462.50
2018-06-14T10:20:42.514Z,2632.50
2018-06-14T10:21:42.653Z,1243.13
2018-06-14T10:22:42.651Z,1136.25
2018-06-14T10:23:42.720Z,1068.75
2018-06-14T10:24:42.789Z,1029.38
2018-06-14T10:25:42.857Z,1023.75
2018-06-14T10:26:42.925Z,1029.38
2018-06-14T10:27:42.995Z,1068.75
2018-06-14T10:28:43.061Z,1125.00
2018-06-14T10:29:43.131Z,1305.00
2018-06-14T10:30:43.199Z,1783.13
2018-06-14T10:31:43.267Z,1305.00
2018-06-14T10:32:43.335Z,1310.63
2018-06-14T10:33:43.402Z,1276.88
2018-06-14T10:34:43.503Z,1226.25
2018-06-14T10:35:43.538Z,1260.00
2018-06-14T10:36:43.605Z,1333.13
2018-06-14T10:37:43.675Z,2801.25
2018-06-14T10:38:43.741Z,2154.38
2018-06-14T10:39:43.807Z,1918.13
2018-06-14T10:40:43.879Z,1777.50
2018-06-14T10:41:44.195Z,1282.50
2018-06-14T10:42:44.014Z,1215.00
2018-06-14T10:43:44.080Z,1248.75
2018-06-14T10:44:44.147Z,1265.63
2018-06-14T10:45:44.215Z,1355.63
2018-06-14T10:46:44.284Z,1878.75
2018-06-14T10:47:44.351Z,2486.25
2018-06-14T10:48:44.423Z,2283.75
2018-06-14T10:49:44.487Z,2289.38
2018-06-14T10:50:44.555Z,2199.38
2018-06-14T10:51:44.628Z,2182.50
2018-06-14T10:52:44.716Z,2188.13
2018-06-14T10:53:44.764Z,2238.75
2018-06-14T10:54:44.847Z,2221.88
2018-06-14T10:55:44.900Z,2154.38
2018-06-14T10:56:44.971Z,2188.13
2018-06-14T10:57:45.539Z,2379.38
2018-06-14T10:58:45.109Z,2441.25
2018-06-14T10:59:45.180Z,2621.25
2018-06-14T11:00:45.250Z,2722.50
2018-06-14T11:01:45.320Z,2407.50
2018-06-14T11:02:45.391Z,1496.25
2018-06-14T11:03:45.463Z,1968.75
2018-06-14T11:04:45.532Z,2098.13
2018-06-14T11:05:45.604Z,1305.00
2018-06-14T11:06:45.674Z,1243.13
2018-06-14T11:07:45.759Z,1125.00
2018-06-14T11:08:45.819Z,1051.88
2018-06-14T11:09:45.888Z,1006.88
2018-06-14T11:10:45.958Z,1018.13
2018-06-14T11:11:46.029Z,1074.38
2018-06-14T11:12:46.097Z,1170.00
2018-06-14T11:13:46.170Z,2098.13
2018-06-14T11:14:46.238Z,2503.13
2018-06-14T11:15:46.310Z,2536.88
2018-06-14T11:16:46.421Z,2553.75
2018-06-14T11:17:46.445Z,1558.13
2018-06-14T11:18:46.514Z,2626.88
2018-06-14T11:19:46.585Z,1766.25
2018-06-14T11:20:46.654Z,2666.25
2018-06-14T11:21:46.723Z,1423.13
2018-06-14T11:22:46.793Z,1777.50
2018-06-14T11:23:46.863Z,1546.88
2018-06-14T11:24:46.932Z,1704.38
2018-06-14T11:25:47.002Z,3285.00
2018-06-14T11:26:47.082Z,3082.50
2018-06-14T11:27:47.143Z,3543.75
2018-06-14T11:28:47.211Z,3633.75
2018-06-14T11:29:47.281Z,3982.50
2018-06-14T11:30:47.353Z,4381.88
2018-06-14T11:31:47.425Z,4511.25
2018-06-14T11:32:47.492Z,1805.63
2018-06-14T11:33:47.586Z,1361.25
2018-06-14T11:34:47.635Z,1355.63
2018-06-14T11:35:47.726Z,1355.63
2018-06-14T11:36:47.776Z,1428.75
2018-06-14T11:37:47.847Z,1383.75
2018-06-14T11:38:47.919Z,1395.00
2018-06-14T11:39:47.991Z,1462.50
2018-06-14T11:40:48.060Z,1631.25
2018-06-14T11:41:48.128Z,1985.63
2018-06-14T11:42:48.754Z,3898.13
2018-06-14T11:43:48.268Z,2216.25
2018-06-14T11:44:48.338Z,4438.13
2018-06-14T11:45:48.406Z,1923.75
2018-06-14T11:46:48.476Z,4803.75
2018-06-14T11:47:48.545Z,4483.13
2018-06-14T11:48:48.615Z,3549.38
2018-06-14T11:49:48.686Z,5023.13
2018-06-14T11:50:48.759Z,1473.75
2018-06-14T11:51:49.140Z,1563.75
2018-06-14T11:52:48.894Z,1749.38
2018-06-14T11:53:48.966Z,3768.75
2018-06-14T11:54:49.034Z,5523.75
2018-06-14T11:55:49.148Z,1906.88
2018-06-14T11:56:49.504Z,1462.50
2018-06-14T11:57:49.246Z,1558.13
2018-06-14T11:58:49.316Z,1698.75
2018-06-14T11:59:49.387Z,1777.50
2018-06-14T12:00:49.457Z,3645.00
2018-06-14T12:01:49.581Z,4505.63
2018-06-14T12:02:49.598Z,5107.50
2018-06-14T12:03:49.669Z,5383.13
2018-06-14T12:04:49.737Z,5293.13
2018-06-14T12:05:49.809Z,1428.75
2018-06-14T12:06:49.882Z,2081.25
2018-06-14T12:07:49.952Z,2632.50
2018-06-14T12:08:50.342Z,5388.75
2018-06-14T12:09:50.091Z,5585.63
2018-06-14T12:10:50.163Z,1231.88
2018-06-14T12:11:50.237Z,1175.63
2018-06-14T12:12:50.303Z,1186.88
2018-06-14T12:13:50.374Z,1299.38
2018-06-14T12:14:50.447Z,5433.75
2018-06-14T12:15:50.516Z,5568.75
2018-06-14T12:16:50.586Z,5473.13
2018-06-14T12:17:50.655Z,1895.63
2018-06-14T12:18:50.727Z,4376.25
2018-06-14T12:19:50.798Z,5535.00
2018-06-14T12:20:50.872Z,2221.88
2018-06-14T12:21:50.940Z,5591.25
2018-06-14T12:22:51.011Z,5310.00
2018-06-14T12:23:51.083Z,4921.88
2018-06-14T12:24:51.169Z,5287.50
2018-06-14T12:25:51.226Z,5360.63
2018-06-14T12:26:51.307Z,5349.38
2018-06-14T12:27:51.370Z,5208.75
2018-06-14T12:28:51.604Z,4741.88
2018-06-14T12:29:51.515Z,2795.63
2018-06-14T12:30:51.623Z,3976.88
2018-06-14T12:31:51.660Z,3594.38
2018-06-14T12:32:51.735Z,3639.38
2018-06-14T12:33:51.808Z,1625.63
2018-06-14T12:34:51.879Z,1513.13
2018-06-14T12:35:51.953Z,1715.63
2018-06-14T12:36:52.025Z,4500.00